Time;durP1;ratioP1;P1;durP2;ratioP2;P2;SDS_P1;SDS_P2;PMS_P1;PMS_P2;Temp;Humidity;BMP_temperature;BMP_pressure;BME280_temperature;BME280_humidity;BME280_pressure;Samples;Min_cycle;Max_cycle;Signal;HPM_P1;HPM_P2
2022/07/11 00:02:01;;;;;;;6.50;6.10;;;19.60;99.90;;;;;;5052631;28;20884;-67
2022/07/11 00:04:29;;;;;;;6.50;6.10;;;19.70;99.90;;;;;;5053472;28;20432;-66
2022/07/11 00:06:56;;;;;;;5.70;5.40;;;19.70;99.90;;;;;;5051857;28;20474;-68
2022/07/11 00:09:22;;;;;;;7.10;6.60;;;19.70;99.90;;;;;;5052167;28;20464;-66
2022/07/11 00:11:48;;;;;;;5.63;5.33;;;19.70;99.90;;;;;;5053232;28;20447;-66
2022/07/11 00:14:14;;;;;;;6.30;5.80;;;19.70;99.90;;;;;;5052225;28;20427;-66
2022/07/11 00:16:40;;;;;;;5.50;5.20;;;19.70;99.90;;;;;;5052063;28;20455;-66
2022/07/11 00:19:06;;;;;;;6.10;5.60;;;19.70;99.90;;;;;;5052223;28;20420;-66
2022/07/11 00:21:33;;;;;;;8.57;5.20;;;19.70;99.90;;;;;;5052630;28;20232;-66
2022/07/11 00:23:59;;;;;;;5.90;5.50;;;19.70;99.90;;;;;;5052184;28;20181;-67
2022/07/11 00:26:25;;;;;;;6.57;6.13;;;19.70;99.90;;;;;;5051997;28;20475;-66
2022/07/11 00:28:51;;;;;;;6.23;5.63;;;19.70;99.90;;;;;;5052932;28;20462;-67
2022/07/11 00:31:16;;;;;;;6.83;6.23;;;19.70;99.90;;;;;;5052060;28;20169;-66
2022/07/11 00:33:42;;;;;;;6.10;5.60;;;19.70;99.90;;;;;;5052857;28;20279;-66
2022/07/11 00:36:08;;;;;;;5.83;5.30;;;19.70;99.90;;;;;;5051082;28;20212;-66
2022/07/11 00:38:34;;;;;;;5.90;5.50;;;19.70;99.90;;;;;;5052422;28;20542;-66
2022/07/11 00:41:00;;;;;;;6.00;5.60;;;19.70;99.90;;;;;;5051909;28;20396;-67
2022/07/11 00:43:53;;;;;;;10.80;6.00;;;19.60;99.90;;;;;;5052914;28;20400;-66
2022/07/11 00:46:19;;;;;;;6.10;5.60;;;19.60;99.90;;;;;;5050941;28;20715;-67
2022/07/11 00:48:45;;;;;;;5.73;5.40;;;19.60;99.90;;;;;;5052464;28;20416;-66
2022/07/11 00:51:12;;;;;;;6.00;5.63;;;19.50;99.90;;;;;;5052044;28;20443;-66
2022/07/11 00:53:39;;;;;;;5.93;5.43;;;19.50;99.90;;;;;;5052530;28;20184;-66
2022/07/11 00:56:06;;;;;;;6.90;5.60;;;19.50;99.90;;;;;;5049859;28;20469;-66
2022/07/11 00:58:32;;;;;;;6.53;6.00;;;19.50;99.90;;;;;;5033797;28;20774;-66
2022/07/11 01:00:58;;;;;;;6.13;5.63;;;19.50;99.90;;;;;;5051988;28;20420;-67
2022/07/11 01:03:24;;;;;;;6.00;5.40;;;19.40;99.90;;;;;;5033807;28;20416;-67
2022/07/11 01:05:50;;;;;;;5.70;5.40;;;19.40;99.90;;;;;;5050267;28;20205;-67
2022/07/11 01:08:15;;;;;;;6.30;5.80;;;19.40;99.90;;;;;;5050634;28;20196;-66
2022/07/11 01:10:41;;;;;;;7.33;6.73;;;19.40;99.90;;;;;;5033081;28;20679;-66
2022/07/11 01:13:07;;;;;;;6.50;6.00;;;19.30;99.90;;;;;;5050265;28;20224;-67
2022/07/11 01:15:36;;;;;;;6.70;6.30;;;19.30;99.90;;;;;;5031341;28;20696;-66
2022/07/11 01:18:03;;;;;;;6.23;5.70;;;19.30;99.90;;;;;;5047468;28;20273;-67
2022/07/11 01:20:29;;;;;;;6.67;6.00;;;19.30;99.90;;;;;;5058590;28;20451;-66
2022/07/11 01:23:03;;;;;;;6.20;5.60;;;19.30;99.90;;;;;;5072164;28;20458;-66
2022/07/11 01:25:30;;;;;;;6.63;6.10;;;19.30;99.90;;;;;;5060535;28;20471;-66
2022/07/11 01:28:00;;;;;;;6.43;5.93;;;19.40;99.90;;;;;;5071850;28;20930;-66
2022/07/11 01:30:27;;;;;;;6.43;6.03;;;19.30;99.90;;;;;;5053430;28;20485;-66
2022/07/11 01:32:53;;;;;;;7.00;6.50;;;19.30;99.90;;;;;;5055022;28;20424;-67
2022/07/11 01:35:20;;;;;;;6.07;5.77;;;19.40;99.90;;;;;;5003109;28;20946;-67
2022/07/11 01:37:45;;;;;;;6.40;5.90;;;19.30;99.90;;;;;;5051961;28;20420;-66
2022/07/11 01:40:11;;;;;;;5.63;5.23;;;19.30;99.90;;;;;;5050120;28;20465;-66
2022/07/11 01:42:37;;;;;;;6.50;6.00;;;19.30;99.90;;;;;;5034046;28;20185;-66
2022/07/11 01:45:03;;;;;;;6.57;5.97;;;19.30;99.90;;;;;;5050269;28;20188;-67
2022/07/11 01:47:29;;;;;;;5.83;5.37;;;19.30;99.90;;;;;;5051867;28;20174;-66
2022/07/11 01:49:55;;;;;;;6.63;6.10;;;19.20;99.90;;;;;;5060225;28;20496;-66
2022/07/11 01:52:21;;;;;;;5.77;5.33;;;19.20;99.90;;;;;;5071112;28;20736;-66
2022/07/11 01:54:47;;;;;;;6.77;5.40;;;19.20;99.90;;;;;;5064042;28;20452;-66
2022/07/11 01:57:13;;;;;;;7.17;6.40;;;19.20;99.90;;;;;;4999565;28;20462;-67
2022/07/11 01:59:39;;;;;;;7.13;6.53;;;19.20;99.90;;;;;;5052074;28;20516;-66
2022/07/11 02:02:05;;;;;;;8.10;7.30;;;19.20;99.90;;;;;;5051180;28;20493;-67
2022/07/11 02:04:31;;;;;;;8.10;7.13;;;19.20;99.90;;;;;;5056088;28;20178;-66
2022/07/11 02:06:57;;;;;;;7.23;6.57;;;19.20;99.90;;;;;;5051672;28;20459;-66
2022/07/11 02:09:23;;;;;;;6.80;6.30;;;19.20;99.90;;;;;;5051202;28;20404;-67
2022/07/11 02:11:48;;;;;;;5.90;5.50;;;19.30;99.90;;;;;;5051974;28;20170;-66
2022/07/11 02:14:14;;;;;;;8.97;6.50;;;19.30;99.90;;;;;;5050819;28;20178;-67
2022/07/11 02:16:40;;;;;;;7.60;5.50;;;19.30;99.90;;;;;;5055458;28;20208;-67
2022/07/11 02:19:06;;;;;;;7.47;6.70;;;19.40;99.90;;;;;;5054458;28;20198;-67
2022/07/11 02:21:33;;;;;;;7.57;6.97;;;19.40;99.90;;;;;;5055346;28;20491;-66
2022/07/11 02:23:58;;;;;;;7.40;6.40;;;19.40;99.90;;;;;;5052885;28;20210;-68
2022/07/11 02:26:24;;;;;;;6.70;6.10;;;19.40;99.90;;;;;;5046654;28;20511;-70
2022/07/11 02:28:50;;;;;;;6.70;6.10;;;19.40;99.90;;;;;;5055234;28;20182;-69
2022/07/11 02:31:16;;;;;;;6.83;6.13;;;19.40;99.90;;;;;;5051960;28;20945;-69
2022/07/11 02:33:42;;;;;;;6.27;5.73;;;19.40;99.90;;;;;;5053873;28;20181;-69
2022/07/11 02:36:08;;;;;;;6.37;5.47;;;19.40;99.90;;;;;;5053020;28;20985;-69
2022/07/11 02:38:34;;;;;;;6.50;6.00;;;19.50;99.90;;;;;;5053884;28;20189;-69
2022/07/11 02:41:00;;;;;;;5.83;5.53;;;19.50;99.90;;;;;;5053350;28;20424;-68
2022/07/11 02:43:27;;;;;;;5.73;5.43;;;19.50;99.90;;;;;;5053029;28;20455;-69
2022/07/11 02:45:54;;;;;;;6.67;6.13;;;19.50;99.90;;;;;;5052787;28;20475;-69
2022/07/11 02:48:20;;;;;;;6.80;6.07;;;19.50;99.90;;;;;;5052772;28;20470;-69
2022/07/11 02:50:46;;;;;;;5.93;5.53;;;19.50;99.90;;;;;;5053702;28;20459;-69
2022/07/11 02:53:12;;;;;;;5.53;5.23;;;19.50;99.90;;;;;;5034995;28;20185;-69
2022/07/11 02:55:37;;;;;;;6.10;5.50;;;19.50;99.90;;;;;;5052805;28;20481;-69
2022/07/11 02:58:03;;;;;;;5.53;5.13;;;19.50;99.90;;;;;;5053754;28;20246;-72
2022/07/11 03:00:29;;;;;;;6.40;5.80;;;19.50;99.90;;;;;;5053004;28;20196;-69
2022/07/11 03:02:55;;;;;;;6.53;5.87;;;19.50;99.90;;;;;;5052350;28;20267;-69
2022/07/11 03:05:21;;;;;;;5.77;5.37;;;19.50;99.90;;;;;;5051697;28;20476;-69
2022/07/11 03:07:47;;;;;;;8.70;5.80;;;19.50;99.90;;;;;;5026634;28;20201;-69
2022/07/11 03:10:13;;;;;;;5.87;5.47;;;19.50;99.90;;;;;;5038616;28;20428;-69
2022/07/11 03:12:39;;;;;;;5.97;5.30;;;19.60;99.90;;;;;;5054421;28;20420;-69
2022/07/11 03:15:06;;;;;;;7.53;5.90;;;19.50;99.90;;;;;;5051334;28;20186;-74
2022/07/11 03:17:31;;;;;;;6.47;5.97;;;19.50;99.90;;;;;;5034458;28;20435;-71
2022/07/11 03:19:57;;;;;;;6.33;5.80;;;19.50;99.90;;;;;;5051371;28;20519;-69
2022/07/11 03:22:23;;;;;;;7.00;6.37;;;19.50;99.90;;;;;;5051662;28;20509;-69
2022/07/11 03:24:50;;;;;;;7.17;6.50;;;19.50;99.90;;;;;;5052347;28;20244;-69
2022/07/11 03:27:16;;;;;;;7.53;7.03;;;19.50;99.90;;;;;;5050139;28;20260;-69
2022/07/11 03:29:42;;;;;;;7.40;6.80;;;19.50;99.90;;;;;;5051645;28;20511;-69
2022/07/11 03:32:09;;;;;;;6.60;6.20;;;19.50;99.90;;;;;;5053497;28;20412;-72
2022/07/11 03:34:35;;;;;;;6.80;6.10;;;19.50;99.90;;;;;;5052221;28;20184;-72
2022/07/11 03:37:01;;;;;;;9.00;6.07;;;19.40;99.90;;;;;;5053381;28;20431;-69
2022/07/11 03:39:27;;;;;;;6.60;6.00;;;19.50;99.90;;;;;;5048538;28;20419;-69
2022/07/11 03:41:53;;;;;;;6.83;6.23;;;19.50;99.90;;;;;;5033016;28;20463;-69
2022/07/11 03:44:19;;;;;;;7.37;6.77;;;19.50;99.90;;;;;;5052139;28;20470;-69
2022/07/11 03:46:44;;;;;;;6.53;6.13;;;19.50;99.90;;;;;;5049914;28;20320;-69
2022/07/11 03:49:10;;;;;;;8.13;6.40;;;19.50;99.90;;;;;;5051582;28;20188;-70
2022/07/11 03:51:36;;;;;;;6.47;5.50;;;19.50;99.90;;;;;;5051625;28;20186;-69
2022/07/11 03:54:02;;;;;;;8.80;5.83;;;19.50;99.90;;;;;;5052230;28;20508;-70
2022/07/11 03:56:28;;;;;;;7.60;6.70;;;19.50;99.90;;;;;;5044546;28;20243;-72
2022/07/11 03:58:54;;;;;;;7.10;6.40;;;19.50;99.90;;;;;;5038477;28;20429;-70
2022/07/11 04:01:20;;;;;;;7.90;6.63;;;19.50;99.90;;;;;;5040771;28;20440;-70
2022/07/11 04:03:46;;;;;;;8.57;6.70;;;19.50;99.90;;;;;;5051843;28;20236;-70
2022/07/11 04:06:13;;;;;;;6.50;5.87;;;19.50;99.90;;;;;;5048733;28;20228;-71
2022/07/11 04:08:39;;;;;;;6.13;5.73;;;19.50;99.90;;;;;;5049556;28;20466;-70
2022/07/11 04:11:05;;;;;;;6.63;6.13;;;19.50;99.90;;;;;;5051969;28;20424;-71
2022/07/11 04:13:31;;;;;;;7.17;6.67;;;19.50;99.90;;;;;;5047086;28;20527;-71
2022/07/11 04:15:56;;;;;;;7.70;6.67;;;19.50;99.90;;;;;;5049614;28;20258;-70
2022/07/11 04:18:22;;;;;;;7.00;6.50;;;19.50;99.90;;;;;;5049650;28;20231;-71
2022/07/11 04:20:49;;;;;;;7.57;7.03;;;19.50;99.90;;;;;;5052780;28;20459;-71
2022/07/11 04:23:15;;;;;;;7.70;7.00;;;19.50;99.90;;;;;;5028226;28;20190;-71
2022/07/11 04:25:41;;;;;;;7.43;6.73;;;19.50;99.90;;;;;;5047556;28;20468;-71
2022/07/11 04:28:07;;;;;;;8.20;7.50;;;19.50;99.90;;;;;;5048752;28;20466;-71
2022/07/11 04:30:33;;;;;;;7.30;6.80;;;19.50;99.90;;;;;;5031386;28;20526;-72
2022/07/11 04:32:59;;;;;;;7.57;6.97;;;19.50;99.90;;;;;;5052510;28;20189;-71
2022/07/11 04:35:27;;;;;;;7.57;7.07;;;19.50;99.90;;;;;;5032006;28;20450;-72
2022/07/11 04:37:53;;;;;;;8.10;7.30;;;19.50;99.90;;;;;;5051455;28;20436;-71
2022/07/11 04:40:23;;;;;;;8.43;7.70;;;19.50;99.90;;;;;;5050774;28;20464;-71
2022/07/11 04:42:50;;;;;;;9.03;8.23;;;19.60;99.90;;;;;;5052043;28;20931;-71
2022/07/11 04:45:16;;;;;;;8.57;7.77;;;19.50;99.90;;;;;;5048871;28;21034;-72
2022/07/11 04:47:41;;;;;;;7.90;7.20;;;19.50;99.90;;;;;;5050644;28;20507;-70
2022/07/11 04:50:08;;;;;;;8.73;8.03;;;19.60;99.90;;;;;;5050741;28;20439;-71
2022/07/11 04:52:34;;;;;;;9.20;8.17;;;19.50;99.90;;;;;;5017413;28;20204;-71
2022/07/11 04:55:00;;;;;;;6.90;6.40;;;19.50;99.90;;;;;;5051315;28;20432;-73
2022/07/11 04:57:26;;;;;;;8.47;7.77;;;19.60;99.90;;;;;;5049198;28;20420;-71
2022/07/11 04:59:52;;;;;;;9.70;8.73;;;19.60;99.90;;;;;;4981167;28;20618;-72
2022/07/11 05:02:18;;;;;;;8.00;7.50;;;19.60;99.90;;;;;;5050212;28;20451;-72
2022/07/11 05:04:45;;;;;;;7.60;7.10;;;19.60;99.90;;;;;;5050618;28;20974;-72
2022/07/11 05:07:12;;;;;;;9.40;8.43;;;19.60;99.90;;;;;;5049248;28;20236;-75
2022/07/11 05:09:39;;;;;;;8.23;7.57;;;19.70;99.90;;;;;;5051165;28;20424;-71
2022/07/11 05:12:06;;;;;;;7.23;6.73;;;19.70;99.90;;;;;;5049002;28;21011;-71
2022/07/11 05:14:32;;;;;;;9.37;7.13;;;19.70;99.90;;;;;;5049592;28;20562;-71
2022/07/11 05:16:58;;;;;;;6.70;6.10;;;19.70;99.90;;;;;;5050870;28;20433;-71
2022/07/11 05:19:23;;;;;;;7.53;6.80;;;19.70;99.90;;;;;;4998578;28;20432;-72
2022/07/11 05:21:49;;;;;;;6.93;6.37;;;19.70;99.90;;;;;;5038252;28;20678;-71
2022/07/11 05:24:15;;;;;;;9.30;6.83;;;19.70;99.90;;;;;;5048525;28;20182;-75
2022/07/11 05:26:44;;;;;;;7.53;6.83;;;19.70;99.90;;;;;;5051502;28;20352;-71
2022/07/11 05:29:10;;;;;;;5.97;5.50;;;19.70;99.90;;;;;;5050894;28;20184;-72
2022/07/11 05:31:35;;;;;;;6.90;6.30;;;19.80;99.90;;;;;;5034709;28;20477;-72
2022/07/11 05:34:01;;;;;;;6.23;5.67;;;19.80;99.90;;;;;;5063379;28;20474;-72
2022/07/11 05:36:27;;;;;;;6.80;6.20;;;19.80;99.90;;;;;;5052015;28;20190;-72
2022/07/11 05:38:53;;;;;;;6.43;5.93;;;19.80;99.90;;;;;;5065574;28;20189;-71
2022/07/11 05:41:18;;;;;;;6.67;6.07;;;19.80;99.90;;;;;;5048502;28;20604;-72
2022/07/11 05:43:44;;;;;;;6.63;6.03;;;19.80;99.90;;;;;;5072196;28;20530;-71
2022/07/11 05:46:10;;;;;;;5.90;5.47;;;19.80;99.90;;;;;;5061774;28;20224;-71
2022/07/11 05:48:35;;;;;;;6.40;5.77;;;19.80;99.90;;;;;;5052825;28;20170;-72
2022/07/11 05:51:01;;;;;;;6.80;6.23;;;19.80;99.90;;;;;;5055958;28;20543;-72
2022/07/11 05:53:27;;;;;;;6.87;6.23;;;19.80;99.90;;;;;;5055553;28;20264;-72
2022/07/11 05:55:52;;;;;;;7.53;6.77;;;19.80;99.90;;;;;;5054577;28;20181;-72
2022/07/11 05:58:18;;;;;;;7.20;6.60;;;19.80;99.90;;;;;;5054672;28;20551;-72
2022/07/11 06:00:44;;;;;;;7.20;5.80;;;19.80;99.90;;;;;;5055924;28;20173;-72
2022/07/11 06:03:09;;;;;;;6.20;5.73;;;19.80;99.90;;;;;;5055818;28;20173;-72
2022/07/11 06:05:35;;;;;;;5.37;4.97;;;19.80;99.90;;;;;;5053618;28;20203;-72
2022/07/11 06:10:45;;;;;;;6.40;5.90;;;19.80;99.90;;;;;;5058965;28;20216;-71
2022/07/11 06:13:11;;;;;;;6.80;6.10;;;19.90;99.90;;;;;;5065375;28;20467;-70
2022/07/11 06:15:37;;;;;;;6.67;6.17;;;20.30;99.90;;;;;;5054749;28;20237;-70
2022/07/11 06:18:02;;;;;;;6.17;5.77;;;20.60;99.90;;;;;;5055311;28;20265;-70
2022/07/11 06:20:29;;;;;;;6.57;5.90;;;20.80;99.90;;;;;;5046591;28;20566;-70
2022/07/11 06:22:55;;;;;;;5.30;4.90;;;21.00;99.90;;;;;;5073101;28;20211;-75
2022/07/11 06:25:20;;;;;;;4.70;4.40;;;21.10;99.90;;;;;;5070631;28;20986;-72
2022/07/11 06:27:46;;;;;;;4.20;4.00;;;21.00;99.90;;;;;;5071585;28;20450;-69
2022/07/11 06:30:12;;;;;;;4.20;3.90;;;20.90;99.90;;;;;;5072474;28;20261;-69
2022/07/11 06:32:39;;;;;;;4.20;3.90;;;20.80;99.90;;;;;;5073222;28;20307;-69
2022/07/11 06:35:05;;;;;;;5.37;4.97;;;20.80;99.90;;;;;;5073801;28;20188;-69
2022/07/11 06:37:32;;;;;;;3.20;3.00;;;20.70;99.90;;;;;;5070452;28;20446;-69
2022/07/11 06:39:58;;;;;;;3.10;2.90;;;20.60;99.90;;;;;;5073820;28;20569;-69
2022/07/11 06:42:23;;;;;;;2.90;2.80;;;20.50;99.90;;;;;;5055608;28;20519;-70
2022/07/11 06:44:49;;;;;;;3.63;3.33;;;20.50;99.90;;;;;;5058217;28;20192;-69
2022/07/11 06:47:15;;;;;;;3.50;3.30;;;20.40;99.90;;;;;;5074707;28;20205;-69
2022/07/11 06:49:40;;;;;;;3.00;2.80;;;20.40;99.90;;;;;;5073933;28;20184;-69
2022/07/11 06:52:06;;;;;;;3.60;3.40;;;20.30;99.90;;;;;;5074179;28;20189;-69
2022/07/11 06:54:32;;;;;;;3.73;3.43;;;20.30;99.90;;;;;;5072528;28;20185;-70
2022/07/11 06:56:57;;;;;;;3.17;3.00;;;20.30;99.90;;;;;;5073802;28;20256;-69
2022/07/11 06:59:23;;;;;;;3.80;2.73;;;20.30;99.90;;;;;;5073698;28;20251;-70
2022/07/11 07:01:49;;;;;;;3.00;2.90;;;20.20;99.90;;;;;;5072861;28;20617;-69
2022/07/11 07:04:15;;;;;;;3.40;3.20;;;20.20;99.90;;;;;;5056585;28;20173;-69
2022/07/11 07:06:41;;;;;;;2.70;2.60;;;20.20;99.90;;;;;;5072138;28;20208;-69
2022/07/11 07:09:06;;;;;;;4.67;3.07;;;20.20;99.90;;;;;;5073641;28;20181;-70
2022/07/11 07:11:32;;;;;;;3.17;3.07;;;20.20;99.90;;;;;;5072318;28;20181;-69
2022/07/11 07:13:58;;;;;;;4.27;4.00;;;20.20;99.90;;;;;;5073403;28;20191;-69
2022/07/11 07:16:23;;;;;;;3.60;3.40;;;20.20;99.90;;;;;;5073770;28;20189;-72
2022/07/11 07:18:50;;;;;;;2.90;2.80;;;20.10;99.90;;;;;;5072855;28;20181;-72
2022/07/11 07:21:16;;;;;;;3.83;3.63;;;20.10;99.90;;;;;;5059826;28;20248;-72
2022/07/11 07:23:41;;;;;;;3.90;3.70;;;20.10;99.90;;;;;;5051152;28;20915;-72
2022/07/11 07:26:07;;;;;;;3.93;3.67;;;20.10;99.90;;;;;;5053922;28;20292;-72
2022/07/11 07:28:33;;;;;;;4.10;3.90;;;20.00;99.90;;;;;;5052394;28;20185;-72
2022/07/11 07:30:59;;;;;;;3.40;3.27;;;20.00;99.90;;;;;;5001478;28;20254;-72
2022/07/11 07:33:25;;;;;;;4.07;3.87;;;19.90;99.90;;;;;;5051016;28;20432;-73
2022/07/11 07:35:50;;;;;;;3.43;3.23;;;19.90;99.90;;;;;;5051642;28;20258;-73
2022/07/11 07:38:16;;;;;;;3.87;3.50;;;19.80;99.90;;;;;;5050810;28;20193;-73
2022/07/11 07:40:42;;;;;;;2.53;2.30;;;19.80;99.90;;;;;;5051020;28;20173;-77
2022/07/11 07:43:08;;;;;;;6.13;3.60;;;19.80;99.90;;;;;;5053406;28;20311;-73
2022/07/11 07:45:34;;;;;;;3.70;3.50;;;19.70;99.90;;;;;;5031964;28;20221;-73
2022/07/11 07:47:59;;;;;;;4.20;3.90;;;19.70;99.90;;;;;;5047769;28;20451;-73
2022/07/11 07:50:25;;;;;;;3.80;3.50;;;19.70;99.90;;;;;;5048859;28;20174;-70
2022/07/11 07:52:51;;;;;;;3.80;3.60;;;19.70;99.90;;;;;;5050566;28;20182;-70
2022/07/11 07:55:17;;;;;;;4.07;3.77;;;19.70;99.90;;;;;;5053024;28;20232;-70
2022/07/11 07:57:43;;;;;;;3.90;3.60;;;19.70;99.90;;;;;;5051959;28;20192;-70
2022/07/11 08:02:53;;;;;;;3.60;3.40;;;19.70;99.90;;;;;;5053522;28;20162;-70
2022/07/11 08:05:20;;;;;;;4.10;3.87;;;19.70;99.90;;;;;;5052499;28;20479;-69
2022/07/11 08:07:46;;;;;;;4.00;3.80;;;19.70;99.90;;;;;;5052771;28;20197;-70
2022/07/11 08:10:14;;;;;;;4.10;3.90;;;19.70;99.90;;;;;;5050140;28;20482;-69
2022/07/11 08:12:40;;;;;;;4.80;4.40;;;19.70;99.90;;;;;;5049777;28;20431;-69
2022/07/11 08:15:06;;;;;;;4.03;3.63;;;19.70;99.90;;;;;;5032916;28;20440;-69
2022/07/11 08:17:32;;;;;;;4.80;4.60;;;19.70;99.90;;;;;;5050587;28;20467;-70
2022/07/11 08:19:58;;;;;;;5.50;5.20;;;19.70;99.90;;;;;;5035776;28;20475;-69
2022/07/11 08:22:25;;;;;;;4.90;4.70;;;19.80;99.90;;;;;;5073095;28;20170;-75
2022/07/11 08:24:50;;;;;;;5.50;5.20;;;19.80;99.90;;;;;;5051587;28;20440;-69
2022/07/11 08:27:16;;;;;;;5.07;4.87;;;19.80;99.90;;;;;;4975095;28;20478;-69
2022/07/11 08:29:42;;;;;;;6.37;6.07;;;19.80;99.90;;;;;;4989638;28;21162;-69
2022/07/11 08:32:08;;;;;;;5.80;5.43;;;19.80;99.90;;;;;;4990445;28;20226;-69
2022/07/11 08:34:34;;;;;;;6.43;5.83;;;19.80;99.90;;;;;;5000287;28;20187;-70
2022/07/11 08:37:00;;;;;;;5.80;5.40;;;19.80;99.90;;;;;;4994075;28;20235;-69
2022/07/11 08:39:25;;;;;;;6.47;6.07;;;19.80;99.90;;;;;;4998513;28;20691;-75
2022/07/11 08:41:51;;;;;;;6.30;6.00;;;19.80;99.90;;;;;;4958751;28;20467;-71
2022/07/11 08:44:17;;;;;;;4.87;4.57;;;19.80;99.90;;;;;;4990667;28;20651;-70
2022/07/11 08:46:43;;;;;;;4.73;4.33;;;19.90;99.90;;;;;;4990007;28;20203;-70
2022/07/11 08:49:12;;;;;;;6.73;6.13;;;19.90;99.90;;;;;;4990849;28;20214;-70
2022/07/11 08:51:37;;;;;;;4.07;3.83;;;19.90;99.90;;;;;;4990252;28;20419;-70
2022/07/11 08:54:04;;;;;;;3.77;3.57;;;19.90;99.90;;;;;;4991116;28;21022;-70
2022/07/11 08:56:30;;;;;;;3.60;3.40;;;19.90;99.90;;;;;;4986304;28;20270;-71
2022/07/11 08:58:59;;;;;;;3.77;3.60;;;19.90;99.90;;;;;;4990530;28;20430;-71
2022/07/11 09:01:30;;;;;;;3.73;3.43;;;19.90;99.90;;;;;;4999497;28;20873;-75
2022/07/11 09:03:56;;;;;;;3.50;3.30;;;19.90;99.90;;;;;;5004951;28;20433;-70
2022/07/11 09:06:22;;;;;;;3.27;3.00;;;20.00;99.90;;;;;;5051264;28;20554;-71
2022/07/11 09:08:48;;;;;;;3.10;2.87;;;20.00;99.90;;;;;;5047413;28;21249;-73
2022/07/11 09:11:13;;;;;;;3.33;3.23;;;20.00;99.90;;;;;;4993166;28;20189;-70
2022/07/11 09:13:39;;;;;;;2.53;2.43;;;20.10;99.90;;;;;;5070505;28;20181;-70
2022/07/11 09:16:07;;;;;;;3.50;3.23;;;20.10;99.90;;;;;;5051026;28;20260;-74
2022/07/11 09:18:39;;;;;;;2.90;2.80;;;20.20;99.90;;;;;;5051463;28;20181;-68
2022/07/11 09:26:46;;;;;;;3.07;2.87;;;20.30;99.90;;;;;;5051248;28;20452;-70
2022/07/11 09:29:14;;;;;;;2.83;2.67;;;20.40;99.90;;;;;;5053037;28;20454;-70
2022/07/11 09:31:44;;;;;;;2.60;2.50;;;20.40;99.90;;;;;;5032051;28;20436;-70
2022/07/11 09:34:15;;;;;;;3.47;3.17;;;20.40;99.90;;;;;;5032912;28;20421;-70
2022/07/11 09:36:41;;;;;;;3.50;3.30;;;20.40;99.90;;;;;;5031724;28;20409;-70
2022/07/11 09:39:09;;;;;;;3.07;2.90;;;20.40;99.90;;;;;;5032259;28;20413;-70
2022/07/11 09:41:36;;;;;;;3.20;3.10;;;20.50;99.90;;;;;;5049342;28;20181;-70
2022/07/11 09:44:06;;;;;;;2.97;2.80;;;20.40;99.90;;;;;;5052334;28;20510;-69
2022/07/11 09:46:32;;;;;;;3.73;3.50;;;20.50;99.90;;;;;;5050882;28;20468;-70
2022/07/11 09:49:00;;;;;;;3.37;3.17;;;20.50;99.90;;;;;;5034232;28;20920;-70
2022/07/11 09:51:26;;;;;;;3.43;3.30;;;20.50;99.90;;;;;;5052589;28;20270;-70
2022/07/11 09:53:58;;;;;;;3.90;3.60;;;20.50;99.90;;;;;;5052406;28;20412;-70
2022/07/11 09:56:26;;;;;;;4.83;4.20;;;20.40;99.90;;;;;;5051364;28;20447;-70
2022/07/11 09:58:59;;;;;;;4.50;4.20;;;20.40;99.90;;;;;;5051886;28;20443;-70
2022/07/11 10:01:28;;;;;;;5.10;4.70;;;20.40;99.90;;;;;;5034335;28;20871;-70
2022/07/11 10:03:54;;;;;;;4.33;4.00;;;20.40;99.90;;;;;;5052224;28;20454;-70
2022/07/11 10:06:19;;;;;;;4.27;4.07;;;20.30;99.90;;;;;;5051086;28;20476;-70
2022/07/11 10:08:45;;;;;;;5.10;4.80;;;20.20;99.90;;;;;;5050853;28;20182;-70
2022/07/11 10:11:11;;;;;;;4.60;4.30;;;20.20;99.90;;;;;;5052066;28;20618;-70
2022/07/11 10:13:38;;;;;;;5.20;4.80;;;20.20;99.90;;;;;;5051314;28;20630;-70
2022/07/11 10:16:13;;;;;;;5.33;4.97;;;20.30;99.90;;;;;;5051324;28;20431;-70
2022/07/11 10:18:57;;;;;;;5.63;5.33;;;20.30;99.90;;;;;;5051413;28;20759;-71
2022/07/11 10:21:31;;;;;;;5.80;5.30;;;20.30;99.90;;;;;;5058340;28;20493;-70
2022/07/11 10:24:16;;;;;;;5.70;5.30;;;20.40;99.90;;;;;;5072198;28;20410;-70
2022/07/11 10:27:08;;;;;;;6.53;6.13;;;20.30;99.90;;;;;;5070606;28;20519;-70
2022/07/11 10:29:39;;;;;;;6.43;5.90;;;20.40;99.90;;;;;;5071534;28;20498;-71
2022/07/11 10:32:06;;;;;;;6.60;6.10;;;20.40;99.90;;;;;;5072297;28;20396;-70
2022/07/11 10:34:32;;;;;;;5.77;5.37;;;20.40;99.90;;;;;;5071415;28;20419;-71
2022/07/11 10:37:02;;;;;;;7.57;7.07;;;20.30;99.90;;;;;;5074385;28;20434;-70
2022/07/11 10:39:29;;;;;;;6.30;5.80;;;20.40;99.90;;;;;;5075258;28;20177;-70
2022/07/11 10:42:00;;;;;;;6.37;5.87;;;20.40;99.90;;;;;;5075130;28;20473;-71
2022/07/11 10:44:28;;;;;;;8.20;7.60;;;20.40;99.90;;;;;;5074101;28;20423;-70
2022/07/11 10:46:54;;;;;;;9.77;7.90;;;20.40;99.90;;;;;;5074686;28;20459;-70
2022/07/11 10:49:48;;;;;;;7.60;7.10;;;20.40;99.90;;;;;;5075540;28;20506;-70
2022/07/11 10:52:22;;;;;;;7.80;7.30;;;20.40;99.90;;;;;;5075325;28;20488;-70
2022/07/11 10:55:12;;;;;;;6.00;5.60;;;20.40;99.90;;;;;;5072433;28;20458;-70
2022/07/11 10:57:49;;;;;;;6.13;5.73;;;20.50;99.90;;;;;;5074646;28;20400;-70
2022/07/11 11:00:20;;;;;;;6.10;5.70;;;20.40;99.90;;;;;;5075269;28;20398;-70
2022/07/11 11:03:00;;;;;;;6.60;6.10;;;20.50;99.90;;;;;;5072880;28;20764;-71
2022/07/11 11:05:49;;;;;;;5.83;5.43;;;20.50;99.90;;;;;;5075063;28;20554;-71
2022/07/11 11:08:34;;;;;;;6.63;6.23;;;20.50;99.90;;;;;;5075155;28;20415;-70
2022/07/11 11:11:01;;;;;;;5.30;5.00;;;20.50;99.90;;;;;;5074916;28;20419;-70
2022/07/11 11:13:28;;;;;;;5.07;4.67;;;20.50;99.90;;;;;;5074213;28;20452;-70
2022/07/11 11:15:59;;;;;;;5.63;5.30;;;20.50;99.90;;;;;;5073964;28;20438;-71
2022/07/11 11:18:24;;;;;;;5.67;5.03;;;20.50;99.90;;;;;;5075017;28;20754;-70
2022/07/11 11:21:02;;;;;;;5.10;4.80;;;20.50;99.90;;;;;;5064450;28;20460;-70
2022/07/11 11:24:02;;;;;;;5.50;5.20;;;20.50;99.90;;;;;;5053792;28;20182;-71
2022/07/11 11:27:03;;;;;;;5.30;5.00;;;20.60;99.90;;;;;;5054590;28;20501;-70
2022/07/11 11:29:30;;;;;;;5.50;5.10;;;20.60;99.90;;;;;;4954260;29;20526;-70
2022/07/11 11:31:58;;;;;;;4.67;4.37;;;20.60;99.90;;;;;;5016397;28;20430;-70
2022/07/11 11:34:25;;;;;;;4.50;4.20;;;20.70;99.90;;;;;;5053618;28;20424;-70
2022/07/11 11:36:56;;;;;;;5.33;5.03;;;20.70;99.90;;;;;;5035920;28;20857;-70
2022/07/11 11:39:35;;;;;;;7.97;7.37;;;20.70;99.90;;;;;;5054429;28;20422;-70
2022/07/11 11:42:16;;;;;;;7.60;7.10;;;20.70;99.90;;;;;;5054467;28;20470;-70
2022/07/11 11:44:54;;;;;;;8.90;8.00;;;20.70;99.90;;;;;;5052813;28;20439;-70
2022/07/11 11:47:20;;;;;;;8.67;8.07;;;20.80;99.90;;;;;;5053422;28;20490;-71
2022/07/11 11:49:47;;;;;;;8.40;7.90;;;20.80;99.90;;;;;;5035679;28;20896;-70
2022/07/11 11:52:13;;;;;;;8.77;8.07;;;20.80;99.90;;;;;;5054149;28;20463;-70
2022/07/11 11:54:39;;;;;;;9.33;8.63;;;20.80;99.90;;;;;;5052645;28;20432;-70
2022/07/11 11:57:07;;;;;;;9.20;8.57;;;20.90;99.90;;;;;;5053966;28;20410;-70
2022/07/11 11:59:33;;;;;;;9.60;8.80;;;20.80;99.90;;;;;;5054165;28;20416;-70
2022/07/11 12:01:59;;;;;;;9.33;8.63;;;20.90;99.90;;;;;;5053281;28;20431;-70
2022/07/11 12:04:24;;;;;;;8.97;8.27;;;20.80;99.90;;;;;;5034879;28;20260;-70
2022/07/11 12:06:50;;;;;;;6.47;6.07;;;20.80;99.90;;;;;;5052874;28;20201;-71
2022/07/11 12:09:18;;;;;;;5.73;5.33;;;20.80;99.90;;;;;;5053719;28;20177;-70
2022/07/11 12:12:43;;;;;;;4.67;4.47;;;20.90;99.90;;;;;;5053391;28;20170;-71
2022/07/11 12:14:34;;;;;;;5.10;4.80;;;20.80;99.90;;;;;;5001287;28;20494;-70
2022/07/11 12:17:00;;;;;;;5.60;5.30;;;20.90;99.90;;;;;;5053548;28;20417;-71
2022/07/11 12:19:33;;;;;;;4.30;4.10;;;21.00;99.90;;;;;;5053345;28;20527;-71
2022/07/11 12:22:04;;;;;;;4.60;4.30;;;21.00;99.90;;;;;;5052584;28;20222;-71
2022/07/11 12:24:30;;;;;;;4.60;4.40;;;21.10;99.90;;;;;;5034670;28;20447;-70
2022/07/11 12:26:56;;;;;;;5.20;4.90;;;21.30;99.90;;;;;;5052757;28;20751;-70
2022/07/11 12:29:24;;;;;;;5.30;4.97;;;21.40;99.90;;;;;;5053431;28;20454;-70
2022/07/11 12:31:52;;;;;;;4.57;4.37;;;21.60;99.90;;;;;;5052709;28;20419;-70
2022/07/11 12:34:20;;;;;;;6.03;5.57;;;21.70;99.90;;;;;;5052483;28;20432;-71
2022/07/11 12:36:47;;;;;;;4.73;4.43;;;21.90;99.90;;;;;;5052678;28;20422;-70
2022/07/11 12:39:28;;;;;;;4.70;4.33;;;21.90;99.90;;;;;;5053458;28;20424;-70
2022/07/11 12:41:56;;;;;;;5.33;4.90;;;22.00;99.90;;;;;;5034957;28;20510;-70
2022/07/11 12:47:16;;;;;;;4.50;4.30;;;22.10;99.90;;;;;;5000690;28;20567;-70
2022/07/11 12:49:45;;;;;;;5.83;5.37;;;22.20;99.90;;;;;;5052377;28;20439;-71
2022/07/11 12:52:12;;;;;;;4.97;4.67;;;22.20;99.90;;;;;;5053193;28;20423;-70
2022/07/11 12:54:39;;;;;;;4.70;4.47;;;22.10;99.90;;;;;;5051910;28;20537;-76
2022/07/11 12:57:06;;;;;;;5.10;4.70;;;22.10;99.90;;;;;;5053208;28;20484;-70
2022/07/11 12:59:33;;;;;;;4.93;4.47;;;22.10;99.90;;;;;;5052444;28;20755;-70
2022/07/11 13:02:00;;;;;;;5.13;4.93;;;22.20;99.90;;;;;;5052180;28;20432;-71
2022/07/11 13:04:38;;;;;;;6.00;5.70;;;22.30;99.90;;;;;;5051942;28;20447;-70